createdAt,value
2022-10-17T00:00:23.018Z,2.90
2022-10-17T00:02:50.759Z,2.80
2022-10-17T00:05:18.760Z,3.25
2022-10-17T00:10:14.509Z,3.28
2022-10-17T00:12:42.626Z,3.38
2022-10-17T00:17:40.508Z,3.28
2022-10-17T00:20:09.589Z,2.78
2022-10-17T00:22:37.646Z,2.67
2022-10-17T00:27:36.212Z,2.35
2022-10-17T00:30:06.274Z,2.80
2022-10-17T00:32:35.468Z,2.72
2022-10-17T00:35:03.942Z,2.65
2022-10-17T00:37:32.207Z,2.85
2022-10-17T00:40:00.251Z,2.95
2022-10-17T00:45:14.971Z,2.60
2022-10-17T00:47:46.145Z,2.65
2022-10-17T00:50:14.871Z,2.90
2022-10-17T00:52:43.156Z,2.78
2022-10-17T00:55:15.049Z,2.65
2022-10-17T00:57:45.203Z,2.92
2022-10-17T01:00:14.550Z,2.60
2022-10-17T01:02:42.593Z,2.63
2022-10-17T01:05:12.079Z,3.08
2022-10-17T01:07:42.638Z,2.80
2022-10-17T01:10:12.106Z,2.97
2022-10-17T01:12:56.519Z,2.17
2022-10-17T01:15:37.770Z,2.83
2022-10-17T01:18:18.372Z,2.72
2022-10-17T01:21:08.552Z,2.75
2022-10-17T01:24:18.252Z,3.03
2022-10-17T01:27:01.716Z,2.78
2022-10-17T01:29:39.363Z,3.00
2022-10-17T01:32:17.479Z,2.72
2022-10-17T01:34:56.191Z,2.60
2022-10-17T01:37:31.683Z,3.03
2022-10-17T01:40:10.560Z,2.88
2022-10-17T01:42:45.376Z,3.45
2022-10-17T01:45:17.692Z,2.53
2022-10-17T01:47:48.914Z,2.60
2022-10-17T01:50:21.298Z,2.75
2022-10-17T01:52:53.768Z,2.65
2022-10-17T01:55:24.931Z,2.88
2022-10-17T01:57:56.663Z,2.80
2022-10-17T02:00:28.124Z,2.67
2022-10-17T02:03:01.569Z,2.90
2022-10-17T02:05:34.387Z,3.10
2022-10-17T02:08:02.168Z,2.60
2022-10-17T02:10:37.428Z,2.97
2022-10-17T02:13:12.489Z,3.15
2022-10-17T02:16:09.502Z,2.50
2022-10-17T02:18:49.224Z,2.97
2022-10-17T02:21:25.424Z,2.90
2022-10-17T02:23:58.322Z,2.80
2022-10-17T02:26:31.591Z,3.35
2022-10-17T02:29:08.798Z,2.78
2022-10-17T02:31:41.120Z,3.20
2022-10-17T02:34:14.613Z,3.25
2022-10-17T02:36:48.221Z,2.85
2022-10-17T02:39:17.794Z,2.92
2022-10-17T02:41:47.243Z,2.72
2022-10-17T02:44:15.707Z,2.63
2022-10-17T02:46:46.311Z,2.90
2022-10-17T02:49:19.637Z,2.88
2022-10-17T02:51:55.036Z,3.15
2022-10-17T02:54:29.299Z,3.25
2022-10-17T02:57:01.983Z,3.13
2022-10-17T03:02:04.667Z,3.00
2022-10-17T03:04:34.471Z,2.92
2022-10-17T03:07:02.345Z,3.05
2022-10-17T03:09:30.285Z,2.80
2022-10-17T03:11:58.070Z,2.88
2022-10-17T03:14:25.933Z,3.20
2022-10-17T03:16:53.682Z,3.13
2022-10-17T03:19:21.552Z,3.13
2022-10-17T03:21:50.678Z,2.75
2022-10-17T03:24:19.767Z,2.90
2022-10-17T03:26:47.605Z,3.40
2022-10-17T03:29:15.716Z,3.03
2022-10-17T03:34:11.167Z,3.20
2022-10-17T03:36:38.983Z,3.25
2022-10-17T03:39:08.103Z,3.20
2022-10-17T03:41:36.321Z,3.50
2022-10-17T03:44:04.653Z,3.10
2022-10-17T03:49:00.351Z,2.97
2022-10-17T03:53:56.092Z,3.28
2022-10-17T03:56:26.791Z,3.00
2022-10-17T03:58:55.207Z,3.45
2022-10-17T04:01:24.133Z,3.08
2022-10-17T04:03:53.379Z,3.42
2022-10-17T04:06:22.579Z,3.08
2022-10-17T04:08:50.479Z,3.13
2022-10-17T04:13:48.137Z,3.17
2022-10-17T04:16:18.019Z,3.10
2022-10-17T04:18:45.873Z,3.10
2022-10-17T04:21:14.697Z,3.10
2022-10-17T04:23:42.545Z,3.67
2022-10-17T04:26:10.511Z,3.30
2022-10-17T04:33:53.899Z,3.40
2022-10-17T04:36:23.406Z,3.25
2022-10-17T04:38:51.766Z,3.90
2022-10-17T04:41:20.243Z,3.03
2022-10-17T04:43:50.977Z,3.38
2022-10-17T04:46:20.730Z,3.40
2022-10-17T04:48:48.486Z,3.47
2022-10-17T04:51:20.563Z,3.50
2022-10-17T04:53:51.019Z,3.53
2022-10-17T04:56:22.237Z,3.72
2022-10-17T04:58:50.664Z,3.83
2022-10-17T05:01:21.834Z,3.28
2022-10-17T05:03:49.635Z,3.85
2022-10-17T05:06:19.104Z,3.72
2022-10-17T05:08:47.784Z,3.85
2022-10-17T05:11:19.256Z,3.85
2022-10-17T05:13:51.591Z,3.72
2022-10-17T05:16:19.961Z,3.80
2022-10-17T05:18:52.940Z,4.43
2022-10-17T05:21:22.378Z,3.85
2022-10-17T05:23:50.828Z,3.25
2022-10-17T05:26:19.195Z,3.92
2022-10-17T05:28:47.220Z,4.25
2022-10-17T05:33:42.572Z,3.53
2022-10-17T05:36:12.324Z,3.78
2022-10-17T05:38:40.116Z,3.83
2022-10-17T05:41:08.000Z,4.75
2022-10-17T05:43:35.970Z,4.20
2022-10-17T05:46:07.624Z,4.20
2022-10-17T05:48:35.987Z,4.13
2022-10-17T05:51:05.725Z,4.40
2022-10-17T05:53:36.431Z,4.15
2022-10-17T05:56:06.002Z,4.43
2022-10-17T05:58:52.420Z,4.25
2022-10-17T06:03:49.805Z,4.70
2022-10-17T06:06:18.999Z,3.75
2022-10-17T06:08:48.214Z,3.90
2022-10-17T06:11:16.002Z,3.80
2022-10-17T06:13:43.844Z,4.63
2022-10-17T06:16:11.780Z,4.43
2022-10-17T06:18:40.017Z,4.30
2022-10-17T06:21:11.003Z,4.38
2022-10-17T06:23:39.062Z,4.38
2022-10-17T06:28:36.896Z,4.47
2022-10-17T06:31:08.984Z,4.35
2022-10-17T06:33:37.174Z,4.28
2022-10-17T06:36:06.344Z,3.95
2022-10-17T06:38:35.037Z,4.25
2022-10-17T06:41:09.417Z,4.32
2022-10-17T06:43:37.604Z,4.15
2022-10-17T06:46:05.620Z,4.40
2022-10-17T06:48:34.291Z,4.40
2022-10-17T06:51:02.243Z,3.92
2022-10-17T06:53:30.304Z,4.40
2022-10-17T06:58:31.736Z,4.18
2022-10-17T07:01:01.228Z,4.90
2022-10-17T07:03:30.367Z,4.43
2022-10-17T07:05:59.206Z,4.18
2022-10-17T07:08:27.149Z,4.47
2022-10-17T07:10:55.853Z,4.00
2022-10-17T07:13:23.695Z,4.07
2022-10-17T07:15:52.971Z,4.38
2022-10-17T07:18:20.792Z,4.18
2022-10-17T07:20:54.755Z,5.57
2022-10-17T07:23:23.018Z,4.05
2022-10-17T07:25:51.105Z,4.53
2022-10-17T07:30:50.617Z,4.00
2022-10-17T07:33:23.078Z,4.15
2022-10-17T07:35:52.671Z,4.18
2022-10-17T07:38:20.534Z,4.63
2022-10-17T07:40:55.458Z,3.80
2022-10-17T07:43:23.660Z,4.05
2022-10-17T07:45:51.643Z,3.60
2022-10-17T07:48:21.700Z,4.47
2022-10-17T07:50:51.517Z,3.92
2022-10-17T07:53:19.581Z,4.07
2022-10-17T07:58:16.327Z,3.90
2022-10-17T08:00:44.455Z,3.80
2022-10-17T08:03:12.439Z,4.57
2022-10-17T08:05:40.294Z,4.53
2022-10-17T08:08:09.610Z,4.07
2022-10-17T08:10:38.130Z,4.47
2022-10-17T08:13:05.981Z,4.55
2022-10-17T08:15:33.919Z,4.70
2022-10-17T08:18:02.192Z,4.00
2022-10-17T08:20:30.239Z,4.07
2022-10-17T08:25:27.226Z,3.90
2022-10-17T08:27:55.197Z,4.53
2022-10-17T08:30:23.184Z,4.30
2022-10-17T08:32:51.186Z,4.15
2022-10-17T08:37:47.025Z,4.72
2022-10-17T08:40:20.344Z,4.15
2022-10-17T08:43:02.593Z,3.67
2022-10-17T08:45:34.841Z,4.18
2022-10-17T08:48:05.468Z,3.83
2022-10-17T08:50:38.695Z,4.22
2022-10-17T08:53:15.998Z,3.67
2022-10-17T08:55:47.659Z,4.30
2022-10-17T08:58:20.441Z,3.53
2022-10-17T09:00:54.671Z,3.15
2022-10-17T09:03:50.618Z,3.30
2022-10-17T09:06:29.808Z,3.25
2022-10-17T09:09:10.457Z,3.25
2022-10-17T09:11:51.130Z,3.33
2022-10-17T09:14:43.164Z,3.38
2022-10-17T09:17:22.289Z,3.60
2022-10-17T09:20:04.684Z,3.22
2022-10-17T09:22:38.822Z,3.03
2022-10-17T09:25:12.536Z,3.25
2022-10-17T09:27:44.336Z,3.30
2022-10-17T09:30:44.158Z,3.15
2022-10-17T09:33:23.414Z,2.95
2022-10-17T09:36:06.240Z,2.78
2022-10-17T09:38:40.833Z,2.90
2022-10-17T09:44:16.382Z,2.65
2022-10-17T09:46:55.864Z,2.45
2022-10-17T09:49:31.772Z,2.63
2022-10-17T09:52:00.240Z,2.85
2022-10-17T09:54:35.410Z,2.55
2022-10-17T09:57:04.905Z,2.33
2022-10-17T09:59:35.242Z,2.60
2022-10-17T10:02:18.048Z,2.05
2022-10-17T10:05:06.093Z,2.22
2022-10-17T10:07:38.375Z,2.40
2022-10-17T10:10:08.973Z,2.70
2022-10-17T10:12:40.370Z,2.00
2022-10-17T10:15:34.845Z,2.03
2022-10-17T10:18:04.685Z,2.30
2022-10-17T10:20:35.839Z,1.95
2022-10-17T10:23:15.291Z,2.10
2022-10-17T10:25:58.158Z,2.90
2022-10-17T10:28:29.527Z,2.83
2022-10-17T10:31:00.026Z,3.40
2022-10-17T10:33:31.073Z,3.30
2022-10-17T10:36:01.857Z,3.80
2022-10-17T10:38:31.268Z,4.03
2022-10-17T10:41:04.424Z,3.85
2022-10-17T10:43:36.662Z,3.90
2022-10-17T10:46:07.440Z,4.22
2022-10-17T10:48:38.184Z,4.30
2022-10-17T10:51:14.009Z,4.47
2022-10-17T10:53:48.205Z,4.07
2022-10-17T10:56:20.967Z,3.70
2022-10-17T10:58:57.745Z,3.45
2022-10-17T11:01:32.622Z,4.07
2022-10-17T11:04:22.560Z,3.58
2022-10-17T11:06:54.131Z,3.58
2022-10-17T11:09:33.776Z,3.60
2022-10-17T11:12:07.599Z,3.85
2022-10-17T11:14:48.038Z,4.03
2022-10-17T11:17:29.377Z,3.45
2022-10-17T11:20:11.923Z,3.20
2022-10-17T11:22:43.308Z,3.53
2022-10-17T11:25:23.322Z,3.33
2022-10-17T11:27:51.260Z,3.30
2022-10-17T11:30:19.417Z,3.28
2022-10-17T11:32:50.799Z,2.85
2022-10-17T11:35:25.464Z,2.53
2022-10-17T11:38:09.513Z,2.70
2022-10-17T11:40:41.933Z,2.50
2022-10-17T11:43:16.077Z,2.72
2022-10-17T11:45:47.346Z,2.20
2022-10-17T11:48:20.865Z,1.67
2022-10-17T11:53:48.942Z,1.75
2022-10-17T11:56:21.559Z,2.00
2022-10-17T11:59:00.546Z,1.77
2022-10-17T12:01:35.591Z,1.80
2022-10-17T12:04:21.902Z,1.75
2022-10-17T12:07:13.970Z,1.70
2022-10-17T12:09:48.769Z,1.08
2022-10-17T12:12:27.283Z,1.58
2022-10-17T12:14:55.629Z,1.70
2022-10-17T12:17:34.775Z,1.80
2022-10-17T12:20:30.526Z,1.63
2022-10-17T12:23:04.552Z,1.73
2022-10-17T12:25:34.371Z,1.70
2022-10-17T12:28:16.126Z,1.98
2022-10-17T12:30:53.253Z,1.67
2022-10-17T12:33:23.617Z,1.58
2022-10-17T12:35:53.035Z,1.90
2022-10-17T12:38:29.314Z,1.80
2022-10-17T12:41:02.014Z,1.80
2022-10-17T12:46:45.056Z,1.60
2022-10-17T12:49:24.596Z,1.50
2022-10-17T12:52:18.451Z,1.25
2022-10-17T12:55:00.387Z,1.73
2022-10-17T12:57:44.551Z,1.40
2022-10-17T13:00:24.655Z,1.60
2022-10-17T13:02:56.133Z,1.40
2022-10-17T13:05:30.458Z,1.25
2022-10-17T13:08:00.932Z,1.55
2022-10-17T13:10:33.238Z,1.80
2022-10-17T13:13:07.401Z,1.48
2022-10-17T13:15:37.394Z,1.67
2022-10-17T13:18:05.797Z,1.50
2022-10-17T13:20:33.958Z,1.50
2022-10-17T13:23:02.031Z,1.30
2022-10-17T13:25:31.331Z,1.33
2022-10-17T13:28:12.075Z,1.50
2022-10-17T13:30:40.135Z,1.20
2022-10-17T13:33:28.883Z,1.77
2022-10-17T13:36:01.048Z,1.23
2022-10-17T13:38:34.800Z,1.60
2022-10-17T13:41:34.198Z,1.45
2022-10-17T13:44:04.568Z,1.25
2022-10-17T13:46:39.557Z,1.25
2022-10-17T13:49:23.300Z,1.70
2022-10-17T13:51:55.360Z,1.20
2022-10-17T13:54:35.611Z,1.25
2022-10-17T13:57:06.073Z,1.73
2022-10-17T13:59:40.187Z,1.35
2022-10-17T14:02:14.689Z,1.17
2022-10-17T14:05:16.314Z,1.85
2022-10-17T14:08:05.556Z,1.17
2022-10-17T14:10:28.133Z,1.42
2022-10-17T14:12:58.024Z,1.60
2022-10-17T14:15:28.646Z,1.42
2022-10-17T14:18:02.297Z,1.30
2022-10-17T14:21:31.811Z,1.15
2022-10-17T14:23:32.566Z,1.17
2022-10-17T14:26:09.173Z,1.02
2022-10-17T14:28:39.726Z,1.67
2022-10-17T14:31:22.363Z,1.50
2022-10-17T14:33:51.755Z,1.60
2022-10-17T14:36:20.685Z,1.50
2022-10-17T14:38:50.960Z,1.60
2022-10-17T14:44:20.583Z,1.63
2022-10-17T14:46:52.600Z,1.70
2022-10-17T14:49:25.399Z,1.13
2022-10-17T14:52:29.192Z,1.30
2022-10-17T14:54:58.122Z,1.10
2022-10-17T14:57:41.794Z,1.20
2022-10-17T15:00:15.651Z,1.40
2022-10-17T15:02:44.141Z,1.40
2022-10-17T15:05:13.401Z,1.85
2022-10-17T15:07:41.913Z,1.30
2022-10-17T15:10:24.468Z,1.52
2022-10-17T15:12:57.554Z,1.33
2022-10-17T15:15:34.044Z,1.77
2022-10-17T15:18:02.503Z,1.50
2022-10-17T15:20:30.995Z,1.30
2022-10-17T15:23:00.345Z,1.67
2022-10-17T15:25:29.772Z,1.80
2022-10-17T15:27:57.769Z,1.52
2022-10-17T15:30:27.583Z,1.48
2022-10-17T15:32:57.374Z,1.90
2022-10-17T15:35:25.650Z,1.70
2022-10-17T15:37:53.427Z,1.67
2022-10-17T15:40:23.034Z,4.78
2022-10-17T15:42:51.339Z,2.08
2022-10-17T15:45:21.893Z,1.80
2022-10-17T15:47:52.696Z,1.90
2022-10-17T15:50:22.785Z,1.70
2022-10-17T15:52:52.229Z,1.42
2022-10-17T15:55:20.722Z,1.75
2022-10-17T15:57:49.879Z,1.40
2022-10-17T16:00:19.595Z,1.30
2022-10-17T16:02:49.322Z,1.20
2022-10-17T16:05:23.154Z,1.30
2022-10-17T16:07:53.968Z,1.58
2022-10-17T16:10:22.765Z,1.35
2022-10-17T16:12:51.123Z,1.35
2022-10-17T16:15:24.847Z,1.50
2022-10-17T16:17:53.880Z,1.30
2022-10-17T16:20:22.781Z,1.33
2022-10-17T16:23:00.027Z,2.03
2022-10-17T16:25:29.594Z,1.30
2022-10-17T16:27:59.437Z,1.35
2022-10-17T16:30:29.539Z,1.42
2022-10-17T16:32:57.712Z,1.23
2022-10-17T16:35:31.696Z,1.30
2022-10-17T16:38:04.142Z,1.80
2022-10-17T16:40:31.928Z,2.00
2022-10-17T16:42:59.872Z,1.88
2022-10-17T16:45:27.922Z,2.15
2022-10-17T16:50:24.522Z,2.20
2022-10-17T16:52:52.417Z,2.50
2022-10-17T16:55:21.650Z,4.40
2022-10-17T16:57:49.750Z,3.30
2022-10-17T17:00:18.302Z,2.63
2022-10-17T17:02:48.540Z,2.53
2022-10-17T17:05:16.715Z,2.40
2022-10-17T17:07:44.536Z,2.70
2022-10-17T17:10:12.328Z,1.83
2022-10-17T17:12:41.468Z,2.13
2022-10-17T17:15:09.978Z,2.22
2022-10-17T17:17:49.566Z,2.25
2022-10-17T17:20:19.358Z,5.32
2022-10-17T17:22:47.244Z,9.73
2022-10-17T17:25:15.133Z,14.82
2022-10-17T17:27:44.252Z,12.88
2022-10-17T17:30:12.646Z,12.18
2022-10-17T17:32:40.745Z,12.15
2022-10-17T17:37:37.330Z,6.78
2022-10-17T17:40:06.609Z,7.15
2022-10-17T17:42:34.528Z,5.78
2022-10-17T17:45:04.496Z,5.28
2022-10-17T17:47:32.524Z,4.20
2022-10-17T17:50:00.655Z,3.80
2022-10-17T17:52:29.835Z,3.33
2022-10-17T17:54:57.845Z,3.97
2022-10-17T17:57:25.854Z,3.90
2022-10-17T17:59:53.780Z,3.65
2022-10-17T18:02:23.034Z,3.70
2022-10-17T18:04:51.224Z,3.88
2022-10-17T18:07:19.077Z,4.15
2022-10-17T18:09:48.225Z,4.43
2022-10-17T18:12:16.189Z,4.63
2022-10-17T18:14:44.204Z,4.47
2022-10-17T18:17:12.521Z,3.92
2022-10-17T18:19:42.626Z,4.43
2022-10-17T18:22:10.783Z,4.15
2022-10-17T18:24:38.706Z,4.50
2022-10-17T18:27:06.753Z,4.47
2022-10-17T18:29:34.794Z,4.80
2022-10-17T18:32:02.643Z,4.53
2022-10-17T18:34:30.700Z,5.07
2022-10-17T18:37:00.270Z,5.60
2022-10-17T18:39:28.559Z,4.72
2022-10-17T18:41:56.587Z,5.07
2022-10-17T18:44:24.834Z,5.07
2022-10-17T18:46:52.944Z,5.85
2022-10-17T18:51:51.382Z,4.82
2022-10-17T18:54:22.274Z,4.78
2022-10-17T18:56:52.370Z,5.88
2022-10-17T18:59:20.928Z,4.75
2022-10-17T19:01:49.267Z,5.28
2022-10-17T19:04:17.639Z,4.88
2022-10-17T19:06:45.735Z,4.82
2022-10-17T19:09:14.608Z,4.43
2022-10-17T19:11:44.534Z,5.15
2022-10-17T19:14:14.057Z,5.68
2022-10-17T19:16:43.745Z,5.72
2022-10-17T19:19:14.646Z,5.53
2022-10-17T19:21:43.162Z,5.97
2022-10-17T19:24:14.296Z,5.70
2022-10-17T19:26:45.527Z,5.65
2022-10-17T19:29:15.045Z,6.65
2022-10-17T19:31:46.065Z,5.45
2022-10-17T19:34:14.719Z,4.88
2022-10-17T19:36:43.157Z,5.43
2022-10-17T19:39:13.335Z,5.10
2022-10-17T19:41:41.469Z,5.63
2022-10-17T19:46:39.150Z,4.43
2022-10-17T19:49:07.745Z,4.70
2022-10-17T19:51:35.502Z,4.88
2022-10-17T19:54:03.319Z,5.05
2022-10-17T19:56:33.449Z,4.65
2022-10-17T19:59:01.209Z,5.53
2022-10-17T20:01:33.481Z,4.45
2022-10-17T20:04:01.376Z,5.32
2022-10-17T20:06:29.180Z,4.93
2022-10-17T20:08:57.450Z,5.40
2022-10-17T20:11:27.515Z,5.18
2022-10-17T20:13:56.593Z,4.95
2022-10-17T20:16:27.173Z,5.13
2022-10-17T20:18:58.062Z,8.88
2022-10-17T20:21:28.218Z,6.07
2022-10-17T20:23:56.616Z,5.60
2022-10-17T20:26:37.471Z,5.35
2022-10-17T20:29:11.061Z,4.93
2022-10-17T20:31:40.305Z,4.90
2022-10-17T20:34:12.758Z,5.38
2022-10-17T20:36:40.706Z,5.32
2022-10-17T20:39:09.181Z,4.50
2022-10-17T20:41:37.090Z,4.75
2022-10-17T20:44:06.798Z,5.35
2022-10-17T20:46:37.808Z,4.80
2022-10-17T20:49:15.617Z,4.75
2022-10-17T20:51:43.405Z,5.07
2022-10-17T20:54:11.751Z,5.32
2022-10-17T20:56:39.767Z,4.80
2022-10-17T21:01:37.011Z,5.18
2022-10-17T21:04:33.190Z,4.72
2022-10-17T21:06:54.758Z,4.97
2022-10-17T21:09:22.996Z,5.20
2022-10-17T21:11:55.104Z,6.47
2022-10-17T21:14:24.255Z,5.35
2022-10-17T21:16:53.113Z,6.22
2022-10-17T21:19:22.451Z,5.13
2022-10-17T21:21:50.789Z,5.55
2022-10-17T21:24:20.863Z,5.20
2022-10-17T21:26:55.157Z,6.68
2022-10-17T21:29:24.112Z,5.57
2022-10-17T21:31:52.329Z,5.18
2022-10-17T21:34:22.502Z,5.47
2022-10-17T21:36:50.589Z,4.95
2022-10-17T21:41:47.608Z,4.80
2022-10-17T21:44:16.972Z,4.75
2022-10-17T21:46:45.464Z,5.43
2022-10-17T21:49:15.118Z,5.45
2022-10-17T21:51:43.140Z,5.43
2022-10-17T21:54:11.264Z,4.85
2022-10-17T21:59:08.758Z,4.90
2022-10-17T22:04:07.829Z,4.50
2022-10-17T22:06:40.313Z,4.40
2022-10-17T22:09:11.346Z,5.78
2022-10-17T22:11:40.772Z,4.80
2022-10-17T22:14:12.296Z,4.68
2022-10-17T22:16:40.548Z,4.78
2022-10-17T22:19:10.159Z,5.13
2022-10-17T22:21:38.668Z,5.00
2022-10-17T22:24:11.191Z,5.40
2022-10-17T22:26:40.859Z,4.05
2022-10-17T22:29:09.964Z,5.55
2022-10-17T22:31:38.606Z,4.75
2022-10-17T22:34:07.850Z,4.70
2022-10-17T22:36:36.709Z,4.95
2022-10-17T22:39:05.687Z,4.15
2022-10-17T22:41:33.886Z,4.57
2022-10-17T22:44:03.185Z,4.45
2022-10-17T22:46:31.124Z,4.80
2022-10-17T22:48:59.216Z,4.20
2022-10-17T22:53:54.545Z,3.65
2022-10-17T22:56:23.655Z,4.13
2022-10-17T22:58:51.463Z,4.18
2022-10-17T23:01:22.570Z,4.28
2022-10-17T23:03:51.364Z,4.22
2022-10-17T23:06:19.980Z,4.40
2022-10-17T23:08:47.946Z,4.25
2022-10-17T23:11:15.817Z,4.28
2022-10-17T23:13:43.596Z,4.38
2022-10-17T23:16:11.651Z,4.32
2022-10-17T23:21:09.318Z,4.43
2022-10-17T23:23:37.531Z,4.00
2022-10-17T23:26:06.918Z,4.22
2022-10-17T23:28:35.689Z,3.65
2022-10-17T23:31:24.797Z,3.90
2022-10-17T23:33:54.138Z,3.95
2022-10-17T23:36:22.378Z,3.78
2022-10-17T23:38:52.655Z,3.67
2022-10-17T23:41:22.927Z,4.43
2022-10-17T23:43:51.807Z,3.40
2022-10-17T23:46:19.674Z,4.00
2022-10-17T23:48:47.550Z,3.67
2022-10-17T23:51:16.676Z,3.63
2022-10-17T23:53:44.842Z,3.90
2022-10-17T23:58:40.717Z,3.42
